Flight Track Log - Related Links

Times and Time Zones

All times are in EDT time to prevent confusion due to time zone crossing. See the N251NG flight status page for this flight to view local times or setup timezone preferences in your user account.

Time Position Orientation Groundspeed Altitude Reporting Facility
EDT Latitude Longitude Course Direction KTS MPH feet Rate Location/Type
Mon 07:09:56 AM 41.8500 -88.2333 169° South 170 196 2,500  Level Chicago TRACON
Mon 07:10:56 AM 41.8000 -88.2167 166° South 179 206 4,000 1,059 Climbing Chicago TRACON
Mon 07:11:21 AM 41.7867 -88.2197 190° South 172 198 4,000 837 Level Chicago Center
Mon 07:12:22 AM 41.7239 -88.1653 147° Southeast 211 243 5,200 1,033 Climbing Chicago Center
Mon 07:13:23 AM 41.6783 -88.1275 148° Southeast 199 229 6,100 984 Climbing Chicago Center
Mon 07:14:24 AM 41.6244 -88.0828 148° Southeast 223 257 7,200 1,328 Climbing Chicago Center
Mon 07:15:25 AM 41.5794 -88.0458 148° Southeast 197 227 8,800 1,377 Climbing Chicago Center
Mon 07:16:26 AM 41.5344 -88.0083 148° Southeast 190 219 10,000 590 Climbing Chicago Center
Mon 07:17:27 AM 41.4794 -87.9625 148° Southeast 230 265 10,000  Level Chicago Center
Mon 07:18:28 AM 41.4169 -87.9122 149° Southeast 254 292 10,000 443 Level Chicago Center
Mon 07:19:29 AM 41.3547 -87.8606 148° Southeast 261 300 10,900 1,328 Climbing Chicago Center
Mon 07:20:30 AM 41.3053 -87.8203 149° Southeast 211 243 12,700 1,475 Climbing Chicago Center
Mon 07:21:31 AM 41.2569 -87.7789 147° Southeast 206 237 13,900 1,131 Climbing Chicago Center
Mon 07:22:32 AM 41.2097 -87.7342 145° Southeast 208 239 15,000 1,082 Climbing Chicago Center
Mon 07:23:33 AM 41.1614 -87.6881 144° Southeast 212 244 16,100 1,033 Climbing Chicago Center
Mon 07:24:34 AM 41.1133 -87.6408 143° Southeast 216 249 17,100 934 Climbing Chicago Center
Mon 07:25:35 AM 41.0614 -87.5931 145° Southeast 224 258 18,000 1,024 Climbing Chicago Center
Mon 07:26:37 AM 40.9997 -87.5347 144° Southeast 228 262 19,200 1,024 Climbing Chicago Center
Mon 07:27:38 AM 40.9494 -87.4836 142° Southeast 228 262 20,100 836 Climbing Chicago Center
Mon 07:28:39 AM 40.8958 -87.4347 145° Southeast 234 269 20,900 787 Climbing Chicago Center
Mon 07:29:40 AM 40.8419 -87.3858 146° Southeast 236 272 21,700 732 Climbing Chicago Center
Mon 07:30:42 AM 40.7878 -87.3350 145° Southeast 240 276 22,400 780 Climbing Chicago Center
Mon 07:31:43 AM 40.7350 -87.2853 144° Southeast 236 272 23,300 787 Climbing Chicago Center
Mon 07:32:44 AM 40.6808 -87.2342 144° Southeast 239 275 24,000 634 Climbing Chicago Center
Mon 07:33:46 AM 40.6264 -87.1844 145° Southeast 239 275 24,600 488 Climbing Chicago Center
Mon 07:34:47 AM 40.5600 -87.1217 144° Southeast 247 284 25,000 197 Climbing Chicago Center
Mon 07:35:48 AM 40.5056 -87.0694 144° Southeast 261 300 25,000  Level Chicago Center
Mon 07:36:50 AM 40.4411 -87.0111 145° Southeast 277 319 25,000  Level Chicago Center
Mon 07:37:51 AM 40.3756 -86.9503 145° Southeast 284 327 25,000  Level Chicago Center
Mon 07:38:53 AM 40.3089 -86.8900 145° Southeast 290 334 25,000  Level Chicago Center
Mon 07:39:54 AM 40.2333 -86.8183 144° Southeast 287 330 25,000  Level Chicago Center
Mon 07:40:56 AM 40.1664 -86.7575 145° Southeast 292 336 25,000  Level Chicago Center
Mon 07:41:57 AM 40.1003 -86.6969 145° Southeast 289 333 25,000  Level Chicago Center
Mon 07:42:32 AM 40.0656 -86.6650 145° Southeast 292 336 25,000  Level Indianapolis Center
Mon 07:43:34 AM 39.9994 -86.6047 145° Southeast 289 333 25,000  Level Indianapolis Center
Mon 07:44:35 AM 39.9333 -86.5444 145° Southeast 290 334 25,000  Level Indianapolis Center
Mon 07:45:37 AM 39.8558 -86.4739 145° Southeast 290 334 25,000  Level Indianapolis Center
Mon 07:46:38 AM 39.7900 -86.4147 145° Southeast 287 330 25,000  Level Indianapolis Center
Mon 07:47:40 AM 39.7214 -86.3519 145° Southeast 289 333 25,000  Level Indianapolis Center
Mon 07:48:41 AM 39.6592 -86.2964 145° Southeast 292 336 25,000  Level Indianapolis Center
Mon 07:49:43 AM 39.5936 -86.2369 145° Southeast 289 333 25,000  Level Indianapolis Center
Mon 07:50:44 AM 39.5272 -86.1769 145° Southeast 289 333 25,000  Level Indianapolis Center
Mon 07:51:46 AM 39.4497 -86.1078 145° Southeast 289 333 25,000  Level Indianapolis Center
Mon 07:52:47 AM 39.3831 -86.0483 145° Southeast 288 331 25,000  Level Indianapolis Center
Mon 07:53:49 AM 39.3164 -85.9886 145° Southeast 289 333 25,000  Level Indianapolis Center
Mon 07:54:51 AM 39.2506 -85.9297 145° Southeast 287 330 25,000  Level Indianapolis Center
Mon 07:55:52 AM 39.1836 -85.8706 146° Southeast 288 331 25,000  Level Indianapolis Center
Mon 07:56:54 AM 39.1169 -85.8122 146° Southeast 289 333 25,000  Level Indianapolis Center
Mon 07:57:55 AM 39.0506 -85.7525 145° Southeast 288 331 25,000  Level Indianapolis Center
Mon 07:58:57 AM 38.9842 -85.6942 146° Southeast 287 330 25,000  Level Indianapolis Center
Mon 07:59:59 AM 38.9172 -85.6358 146° Southeast 288 331 25,000  Level Indianapolis Center
Mon 08:01:00 AM 38.8389 -85.5678 146° Southeast 291 335 25,000  Level Indianapolis Center
Mon 08:02:02 AM 38.7719 -85.5078 145° Southeast 290 334 25,000  Level Indianapolis Center
Mon 08:03:03 AM 38.7047 -85.4492 146° Southeast 291 335 25,000  Level Indianapolis Center
Mon 08:04:05 AM 38.6372 -85.3903 146° Southeast 292 336 25,000  Level Indianapolis Center
Mon 08:05:06 AM 38.5722 -85.3336 146° Southeast 290 334 25,000  Level Indianapolis Center
Mon 08:06:08 AM 38.5044 -85.2767 147° Southeast 294 338 25,000  Level Indianapolis Center
Mon 08:07:10 AM 38.4364 -85.2175 146° Southeast 294 338 25,000  Level Indianapolis Center
Mon 08:08:11 AM 38.3575 -85.1514 147° Southeast 291 335 25,000 -49 Level Indianapolis Center
Mon 08:09:13 AM 38.2894 -85.0922 146° Southeast 293 337 24,900 -341 Descending Indianapolis Center
Mon 08:10:14 AM 38.2222 -85.0344 146° Southeast 291 335 24,300 -780 Descending Indianapolis Center
Mon 08:11:16 AM 38.1558 -84.9764 145° Southeast 289 333 23,300 -1,161 Descending Indianapolis Center
Mon 08:12:18 AM 38.0892 -84.9208 147° Southeast 287 330 21,900 -1,415 Descending Indianapolis Center
Mon 08:13:19 AM 38.0239 -84.8636 145° Southeast 286 329 20,400 -1,707 Descending Indianapolis Center
Mon 08:14:21 AM 37.9467 -84.7972 146° Southeast 286 329 18,400 -1,790 Descending Indianapolis Center
Mon 08:15:23 AM 37.8825 -84.7419 146° Southeast 280 322 16,700 -1,512 Descending Indianapolis Center
Mon 08:16:24 AM 37.8181 -84.6878 146° Southeast 277 319 15,300 -1,463 Descending Indianapolis Center
Mon 08:17:26 AM 37.7561 -84.6361 147° Southeast 269 310 13,700 -1,548 Descending Indianapolis Center
Mon 08:18:28 AM 37.6956 -84.5844 146° Southeast 261 300 12,100 -1,463 Descending Indianapolis Center
Mon 08:19:29 AM 37.6364 -84.5350 146° Southeast 256 295 10,700 -1,463 Descending Indianapolis Center
Mon 08:20:31 AM 37.5761 -84.4842 146° Southeast 258 297 9,100 -1,645 Descending Indianapolis Center
Mon 08:21:33 AM 37.5042 -84.4261 147° Southeast 262 302 7,300 -1,659 Descending Indianapolis Center
Mon 08:22:34 AM 37.4411 -84.3922 157° South 251 289 5,700 -1,415 Descending Indianapolis Center
Mon 08:23:36 AM 37.3772 -84.3669 163° South 242 278 4,400 -968 Descending Indianapolis Center
Mon 08:24:38 AM 37.3156 -84.3439 163° South 234 269 3,700 -339 Descending Indianapolis Center
Mon 08:25:40 AM 37.2611 -84.3283 167° South 209 241 3,700  Level Indianapolis Center
Mon 08:26:42 AM 37.2075 -84.3206 173° South 195 224 3,700  Level Indianapolis Center
Mon 08:27:43 AM 37.1472 -84.3100 172° South 189 217 3,700  Level Indianapolis Center
Mon 08:28:45 AM 37.0956 -84.3008 172° South 186 214 3,700  Level Indianapolis Center
Mon 08:29:47 AM 37.0439 -84.2933 173° South 187 215 3,700  Level Indianapolis Center
Mon 08:30:49 AM 36.9908 -84.2856 173° South 189 217 3,700  Level Indianapolis Center
Mon 08:31:50 AM 36.9922 -84.2333 88° East 206 237 3,700 -195 Level Indianapolis Center
Mon 08:32:52 AM 37.0214 -84.1853 53° Northeast 181 208 3,300 -387 Descending Indianapolis Center

Login

Don't have an account? Register now (free) for customized features, flight alerts, and more!